Time;durP1;ratioP1;P1;durP2;ratioP2;P2;SDS_P1;SDS_P2;PMS_P1;PMS_P2;Temp;Humidity;BMP_temperature;BMP_pressure;BME280_temperature;BME280_humidity;BME280_pressure;Samples;Min_cycle;Max_cycle;Signal;HPM_P1;HPM_P2
2022/08/16 00:01:27;;;;;;;;;;;;;;;;;;4893483;29;19927;-71
2022/08/16 00:03:59;;;;;;;;;;;;;;;;;;4892944;29;20026;-70
2022/08/16 00:06:28;;;;;;;;;;;;;;;;;;4895004;29;19990;-71
2022/08/16 00:08:55;;;;;;;;;;;;;;;;;;4907776;29;19927;-70
2022/08/16 00:11:22;;;;;;;;;;;;;;;;;;4912083;29;20486;-71
2022/08/16 00:13:50;;;;;;;;;;;;;;;;;;4912211;29;20002;-70
2022/08/16 00:16:20;;;;;;;;;;;;;;;;;;4911881;29;19957;-69
2022/08/16 00:19:07;;;;;;;;;;;;;;;;;;4911876;29;19927;-71
2022/08/16 00:21:35;;;;;;;;;;;;;;;;;;4912124;29;20492;-70
2022/08/16 00:24:02;;;;;;;;;;;;;;;;;;4911914;29;20026;-71
2022/08/16 00:26:31;;;;;;;;;;;;;;;;;;4911536;29;20029;-70
2022/08/16 00:29:01;;;;;;;;;;;;;;;;;;4910187;29;19977;-71
2022/08/16 00:31:28;;;;;;;;;;;;;;;;;;4910380;29;19938;-70
2022/08/16 00:34:15;;;;;;;;;;;;;;;;;;4908256;29;19927;-70
2022/08/16 00:36:45;;;;;;;;;;;;;;;;;;4890980;29;20108;-70
2022/08/16 00:39:13;;;;;;;;;;;;;;;;;;4890548;29;20003;-71
2022/08/16 00:41:41;;;;;;;;;;;;;;;;;;4892309;29;20649;-71
2022/08/16 00:44:12;;;;;;;;;;;;;;;;;;4891068;29;19931;-71
2022/08/16 00:46:39;;;;;;;;;;;;;;;;;;4892055;29;19932;-71
2022/08/16 00:49:18;;;;;;;;;;;;;;;;;;4892410;29;19943;-71
2022/08/16 00:51:46;;;;;;;;;;;;;;;;;;4892383;29;19938;-71
2022/08/16 00:54:13;;;;;;;;;;;;;;;;;;4892927;29;20018;-70
2022/08/16 00:56:40;;;;;;;;;;;;;;;;;;4892474;29;20018;-71
2022/08/16 00:59:24;;;;;;;;;;;;;;;;;;4892907;29;20316;-71
2022/08/16 01:01:52;;;;;;;;;;;;;;;;;;4892455;29;19947;-70
2022/08/16 01:04:19;;;;;;;;;;;;;;;;;;4890236;29;19938;-70
2022/08/16 01:06:55;;;;;;;;;;;;;;;;;;4890003;29;20288;-69
2022/08/16 01:09:28;;;;;;;;;;;;;;;;;;4892069;29;20174;-70
2022/08/16 01:12:00;;;;;;;;;;;;;;;;;;4891006;29;19928;-70
2022/08/16 01:14:27;;;;;;;;;;;;;;;;;;4890672;29;20303;-70
2022/08/16 01:16:59;;;;;;;;;;;;;;;;;;4891124;29;20207;-71
2022/08/16 01:19:26;;;;;;;;;;;;;;;;;;4890936;29;20387;-70
2022/08/16 01:21:54;;;;;;;;;;;;;;;;;;4892545;29;19931;-71
2022/08/16 01:24:21;;;;;;;;;;;;;;;;;;4892608;29;19931;-69
2022/08/16 01:27:09;;;;;;;;;;;;;;;;;;4906473;29;19931;-70
2022/08/16 01:29:37;;;;;;;;;;;;;;;;;;4891020;29;19936;-70
2022/08/16 01:32:23;;;;;;;;;;;;;;;;;;4890849;29;19970;-71
2022/08/16 01:34:57;;;;;;;;;;;;;;;;;;4890050;29;20299;-70
2022/08/16 01:37:25;;;;;;;;;;;;;;;;;;4908287;29;19931;-70
2022/08/16 01:39:52;;;;;;;;;;;;;;;;;;4909479;29;19927;-70
2022/08/16 01:42:19;;;;;;;;;;;;;;;;;;4910671;29;20245;-71
2022/08/16 01:44:47;;;;;;;;;;;;;;;;;;4909347;29;19935;-71
2022/08/16 01:47:14;;;;;;;;;;;;;;;;;;4908165;29;19977;-71
2022/08/16 01:49:43;;;;;;;;;;;;;;;;;;4908878;29;19935;-71
2022/08/16 01:52:30;;;;;;;;;;;;;;;;;;4910486;29;20355;-70
2022/08/16 01:55:02;;;;;;;;;;;;;;;;;;4909355;29;19935;-70
2022/08/16 01:57:30;;;;;;;;;;;;;;;;;;4908576;29;20401;-71
2022/08/16 01:59:58;;;;;;;;;;;;;;;;;;4908892;29;19934;-70
2022/08/16 02:02:25;;;;;;;;;;;;;;;;;;4908878;29;19927;-71
2022/08/16 02:04:54;;;;;;;;;;;;;;;;;;4891985;29;19983;-71
2022/08/16 02:07:24;;;;;;;;;;;;;;;;;;4889451;29;19931;-70
2022/08/16 02:09:52;;;;;;;;;;;;;;;;;;4885325;29;19927;-70
2022/08/16 02:12:23;;;;;;;;;;;;;;;;;;4889745;29;20006;-70
2022/08/16 02:15:11;;;;;;;;;;;;;;;;;;4890115;29;20026;-70
2022/08/16 02:17:39;;;;;;;;;;;;;;;;;;4891005;29;19971;-70
2022/08/16 02:20:06;;;;;;;;;;;;;;;;;;4891221;29;19982;-70
2022/08/16 02:22:38;;;;;;;;;;;;;;;;;;4891288;29;20022;-70
2022/08/16 02:25:05;;;;;;;;;;;;;;;;;;4889771;29;20356;-70
2022/08/16 02:27:32;;;;;;;;;;;;;;;;;;4889510;29;19932;-70
2022/08/16 02:30:00;;;;;;;;;;;;;;;;;;4890929;29;19927;-70
2022/08/16 02:32:33;;;;;;;;;;;;;;;;;;4891348;29;19995;-70
2022/08/16 02:35:17;;;;;;;;;;;;;;;;;;4907621;29;20355;-70
2022/08/16 02:37:44;;;;;;;;;;;;;;;;;;4901485;29;20012;-69
2022/08/16 02:40:20;;;;;;;;;;;;;;;;;;4889828;29;19932;-69
2022/08/16 02:42:47;;;;;;;;;;;;;;;;;;4899896;29;20400;-70
2022/08/16 02:45:16;;;;;;;;;;;;;;;;;;4886438;29;19935;-70
2022/08/16 02:47:43;;;;;;;;;;;;;;;;;;4874423;29;19934;-70
2022/08/16 02:50:28;;;;;;;;;;;;;;;;;;4898241;29;20129;-69
2022/08/16 02:53:15;;;;;;;;;;;;;;;;;;4887177;29;19928;-70
2022/08/16 02:55:44;;;;;;;;;;;;;;;;;;4905088;29;19959;-69
2022/08/16 02:58:11;;;;;;;;;;;;;;;;;;4898160;29;19928;-70
2022/08/16 03:00:40;;;;;;;;;;;;;;;;;;4886057;29;20018;-70
2022/08/16 03:03:12;;;;;;;;;;;;;;;;;;4892365;29;19927;-70
2022/08/16 03:05:40;;;;;;;;;;;;;;;;;;4913031;23;20388;-84
2022/08/16 03:08:08;;;;;;;;;;;;;;;;;;4894468;29;20050;-84
2022/08/16 03:10:55;;;;;;;;;;;;;;;;;;4880632;29;20018;-84
2022/08/16 03:13:26;;;;;;;;;;;;;;;;;;4880328;29;19932;-84
2022/08/16 03:15:54;;;;;;;;;;;;;;;;;;4879918;29;19935;-85
2022/08/16 03:18:21;;;;;;;;;;;;;;;;;;4880449;29;20393;-84
2022/08/16 03:21:01;;;;;;;;;;;;;;;;;;4880403;29;19928;-84
2022/08/16 03:23:29;;;;;;;;;;;;;;;;;;4879911;29;19932;-85
2022/08/16 03:26:02;;;;;;;;;;;;;;;;;;4879846;29;19931;-86
2022/08/16 03:28:30;;;;;;;;;;;;;;;;;;4879012;29;19932;-84
2022/08/16 03:30:58;;;;;;;;;;;;;;;;;;4879946;29;20307;-85
2022/08/16 03:33:25;;;;;;;;;;;;;;;;;;4879940;29;19951;-85
2022/08/16 03:35:58;;;;;;;;;;;;;;;;;;4889591;29;19935;-85
2022/08/16 03:38:49;;;;;;;;;;;;;;;;;;4885858;29;20034;-85
2022/08/16 03:41:17;;;;;;;;;;;;;;;;;;4881025;29;19934;-84
2022/08/16 03:43:54;;;;;;;;;;;;;;;;;;4881106;29;19978;-85
2022/08/16 03:46:27;;;;;;;;;;;;;;;;;;4881404;29;20317;-84
2022/08/16 03:49:13;;;;;;;;;;;;;;;;;;4886143;29;19995;-85
2022/08/16 03:51:43;;;;;;;;;;;;;;;;;;4900602;29;19916;-84
2022/08/16 03:54:18;;;;;;;;;;;;;;;;;;4898803;29;20421;-85
2022/08/16 03:56:45;;;;;;;;;;;;;;;;;;4896369;29;19927;-84
2022/08/16 03:59:23;;;;;;;;;;;;;;;;;;4905377;29;19932;-85
2022/08/16 04:01:51;;;;;;;;;;;;;;;;;;4870382;29;20313;-85
2022/08/16 04:04:19;;;;;;;;;;;;;;;;;;4887891;29;19979;-85
2022/08/16 04:06:51;;;;;;;;;;;;;;;;;;4891377;29;19931;-85
2022/08/16 04:09:19;;;;;;;;;;;;;;;;;;4921207;29;19975;-84
2022/08/16 04:11:46;;;;;;;;;;;;;;;;;;4898733;29;19934;-84
2022/08/16 04:14:13;;;;;;;;;;;;;;;;;;4898552;29;20497;-84
2022/08/16 04:16:58;;;;;;;;;;;;;;;;;;4913666;29;19966;-85
2022/08/16 04:19:34;;;;;;;;;;;;;;;;;;4898271;29;19935;-85
2022/08/16 04:22:02;;;;;;;;;;;;;;;;;;4898878;29;20309;-85
2022/08/16 04:24:42;;;;;;;;;;;;;;;;;;4898478;29;19931;-84
2022/08/16 04:27:09;;;;;;;;;;;;;;;;;;4897656;29;19971;-83
2022/08/16 04:29:37;;;;;;;;;;;;;;;;;;4899079;29;20010;-84
2022/08/16 04:32:10;;;;;;;;;;;;;;;;;;4898612;29;20396;-84
2022/08/16 04:34:41;;;;;;;;;;;;;;;;;;4896619;29;19934;-85
2022/08/16 04:37:09;;;;;;;;;;;;;;;;;;4892317;29;19939;-85
2022/08/16 04:39:40;;;;;;;;;;;;;;;;;;4880651;29;19938;-85
2022/08/16 04:42:14;;;;;;;;;;;;;;;;;;4880161;29;19983;-84
2022/08/16 04:44:42;;;;;;;;;;;;;;;;;;4863728;29;20318;-85
2022/08/16 04:47:21;;;;;;;;;;;;;;;;;;4894346;29;19928;-84
2022/08/16 04:49:51;;;;;;;;;;;;;;;;;;4879683;29;20394;-84
2022/08/16 04:52:19;;;;;;;;;;;;;;;;;;4879755;29;20374;-85
2022/08/16 04:55:00;;;;;;;;;;;;;;;;;;4882045;29;19932;-85
2022/08/16 04:57:27;;;;;;;;;;;;;;;;;;4879006;29;19932;-85
2022/08/16 04:59:56;;;;;;;;;;;;;;;;;;4879436;29;19931;-85
2022/08/16 05:02:23;;;;;;;;;;;;;;;;;;4879134;29;20390;-84
2022/08/16 05:05:08;;;;;;;;;;;;;;;;;;4886242;29;20329;-85
2022/08/16 05:07:43;;;;;;;;;;;;;;;;;;4870491;29;19932;-84
2022/08/16 05:10:25;;;;;;;;;;;;;;;;;;4876972;29;19936;-84
2022/08/16 05:12:52;;;;;;;;;;;;;;;;;;4876735;29;20345;-84
2022/08/16 05:15:19;;;;;;;;;;;;;;;;;;4876948;29;19932;-87
2022/08/16 05:17:47;;;;;;;;;;;;;;;;;;4876991;29;19935;-83
2022/08/16 05:20:14;;;;;;;;;;;;;;;;;;4876656;29;20034;-84
2022/08/16 05:23:03;;;;;;;;;;;;;;;;;;4876126;29;19963;-85
2022/08/16 05:25:30;;;;;;;;;;;;;;;;;;4875810;29;19938;-85
2022/08/16 05:28:15;;;;;;;;;;;;;;;;;;4878508;29;19954;-84
2022/08/16 05:30:47;;;;;;;;;;;;;;;;;;4877811;29;19934;-85
2022/08/16 05:33:20;;;;;;;;;;;;;;;;;;4874868;29;19932;-85
2022/08/16 05:35:48;;;;;;;;;;;;;;;;;;4893687;29;19927;-85
2022/08/16 05:38:45;;;;;;;;;;;;;;;;;;4881056;29;19935;-84
2022/08/16 05:41:13;;;;;;;;;;;;;;;;;;4873274;29;20406;-85
2022/08/16 05:43:43;;;;;;;;;;;;;;;;;;4878508;29;20018;-83
2022/08/16 05:46:18;;;;;;;;;;;;;;;;;;4880439;29;20352;-84
2022/08/16 05:48:57;;;;;;;;;;;;;;;;;;4879480;29;20410;-84
2022/08/16 05:51:29;;;;;;;;;;;;;;;;;;4894377;29;19935;-85
2022/08/16 05:54:04;;;;;;;;;;;;;;;;;;4879357;29;20002;-85
2022/08/16 05:56:32;;;;;;;;;;;;;;;;;;4878858;29;20259;-83
2022/08/16 05:59:03;;;;;;;;;;;;;;;;;;4880359;29;20302;-84
2022/08/16 06:01:32;;;;;;;;;;;;;;;;;;4880041;29;20386;-85
2022/08/16 06:04:05;;;;;;;;;;;;;;;;;;4886813;29;19994;-85
2022/08/16 06:06:43;;;;;;;;;;;;;;;;;;4881810;29;19928;-84
2022/08/16 06:09:24;;;;;;;;;;;;;;;;;;4877008;29;19934;-85
2022/08/16 06:12:09;;;;;;;;;;;;;;;;;;4892994;29;20394;-82
2022/08/16 06:14:36;;;;;;;;;;;;;;;;;;4892718;29;20558;-84
2022/08/16 06:17:04;;;;;;;;;;;;;;;;;;4885490;29;19974;-85
2022/08/16 06:19:33;;;;;;;;;;;;;;;;;;4864718;29;19931;-84
2022/08/16 06:22:10;;;;;;;;;;;;;;;;;;4881100;29;20034;-85
2022/08/16 06:24:57;;;;;;;;;;;;;;;;;;4867499;29;20378;-85
2022/08/16 06:27:27;;;;;;;;;;;;;;;;;;4896828;29;19932;-85
2022/08/16 06:30:06;;;;;;;;;;;;;;;;;;4882142;29;20303;-84
2022/08/16 06:32:34;;;;;;;;;;;;;;;;;;4868049;29;20054;-86
2022/08/16 06:35:04;;;;;;;;;;;;;;;;;;4887775;29;19931;-86
2022/08/16 06:37:34;;;;;;;;;;;;;;;;;;4890261;29;20093;-86
2022/08/16 06:40:03;;;;;;;;;;;;;;;;;;4893718;29;19931;-77
2022/08/16 06:42:35;;;;;;;;;;;;;;;;;;4894383;29;19938;-85
2022/08/16 06:45:36;;;;;;;;;;;;;;;;;;4893408;29;19956;-85
2022/08/16 06:48:10;;;;;;;;;;;;;;;;;;4894027;29;19947;-85
2022/08/16 06:50:37;;;;;;;;;;;;;;;;;;4898775;29;20224;-86
2022/08/16 06:53:07;;;;;;;;;;;;;;;;;;4883212;29;19927;-82
2022/08/16 06:55:45;;;;;;;;;;;;;;;;;;4894491;29;20330;-86
2022/08/16 06:58:15;;;;;;;;;;;;;;;;;;4881558;29;19927;-84
2022/08/16 07:00:54;;;;;;;;;;;;;;;;;;4869575;29;19979;-86
2022/08/16 07:03:21;;;;;;;;;;;;;;;;;;4901579;29;19927;-85
2022/08/16 07:05:53;;;;;;;;;;;;;;;;;;4894907;29;20099;-85
2022/08/16 07:08:26;;;;;;;;;;;;;;;;;;4900358;29;19939;-85
2022/08/16 07:10:54;;;;;;;;;;;;;;;;;;4917431;29;20034;-86
2022/08/16 07:13:21;;;;;;;;;;;;;;;;;;4900919;29;19982;-85
2022/08/16 07:16:13;;;;;;;;;;;;;;;;;;4902907;29;20531;-84
2022/08/16 07:18:43;;;;;;;;;;;;;;;;;;4900637;29;19931;-86
2022/08/16 07:21:29;;;;;;;;;;;;;;;;;;4901073;29;19931;-85
2022/08/16 07:24:16;;;;;;;;;;;;;;;;;;4901296;29;19935;-85
2022/08/16 07:26:58;;;;;;;;;;;;;;;;;;4900430;29;19970;-85
2022/08/16 07:29:27;;;;;;;;;;;;;;;;;;4901859;29;20373;-85
2022/08/16 07:32:01;;;;;;;;;;;;;;;;;;4901166;29;19931;-85
2022/08/16 07:34:31;;;;;;;;;;;;;;;;;;4896711;29;19983;-85
2022/08/16 07:37:01;;;;;;;;;;;;;;;;;;4902977;29;19931;-86
2022/08/16 07:39:42;;;;;;;;;;;;;;;;;;4909140;29;19919;-84
2022/08/16 07:42:10;;;;;;;;;;;;;;;;;;4923904;29;19915;-86
2022/08/16 07:44:52;;;;;;;;;;;;;;;;;;4912041;29;19915;-86
2022/08/16 07:47:20;;;;;;;;;;;;;;;;;;4913685;29;19915;-86
2022/08/16 07:49:53;;;;;;;;;;;;;;;;;;4903249;29;19973;-85
2022/08/16 07:52:28;;;;;;;;;;;;;;;;;;4908750;29;20035;-86
2022/08/16 07:55:00;;;;;;;;;;;;;;;;;;4907350;29;19937;-85
2022/08/16 07:57:42;;;;;;;;;;;;;;;;;;4906487;29;19934;-85
2022/08/16 08:00:27;;;;;;;;;;;;;;;;;;4906401;29;20279;-87
2022/08/16 08:02:54;;;;;;;;;;;;;;;;;;4907672;29;19939;-86
2022/08/16 08:05:32;;;;;;;;;;;;;;;;;;4899112;29;19931;-86
2022/08/16 08:08:06;;;;;;;;;;;;;;;;;;4906180;29;19938;-86
2022/08/16 08:10:41;;;;;;;;;;;;;;;;;;4906089;29;20064;-85
2022/08/16 08:13:30;;;;;;;;;;;;;;;;;;4896209;29;19931;-83
2022/08/16 08:16:09;;;;;;;;;;;;;;;;;;4891520;29;20038;-85
2022/08/16 08:18:48;;;;;;;;;;;;;;;;;;4903943;29;19994;-85
2022/08/16 08:21:18;;;;;;;;;;;;;;;;;;4900911;29;19946;-86
2022/08/16 08:23:46;;;;;;;;;;;;;;;;;;4899951;29;19983;-85
2022/08/16 08:26:16;;;;;;;;;;;;;;;;;;4900316;29;19966;-85
2022/08/16 08:28:44;;;;;;;;;;;;;;;;;;4901870;29;19954;-84
2022/08/16 08:31:13;;;;;;;;;;;;;;;;;;4901846;29;20025;-85
2022/08/16 08:33:42;;;;;;;;;;;;;;;;;;4899914;29;20636;-85
2022/08/16 08:36:15;;;;;;;;;;;;;;;;;;4892683;29;19931;-85
2022/08/16 08:38:51;;;;;;;;;;;;;;;;;;4881925;29;20069;-85
2022/08/16 08:41:18;;;;;;;;;;;;;;;;;;4881586;29;19932;-85
2022/08/16 08:43:52;;;;;;;;;;;;;;;;;;4867166;29;19954;-85
2022/08/16 08:46:20;;;;;;;;;;;;;;;;;;4880832;29;19935;-85
2022/08/16 08:48:49;;;;;;;;;;;;;;;;;;4881429;29;19938;-85
2022/08/16 08:51:32;;;;;;;;;;;;;;;;;;4880301;29;20368;-85
2022/08/16 08:54:03;;;;;;;;;;;;;;;;;;4878387;29;19927;-85
2022/08/16 08:56:32;;;;;;;;;;;;;;;;;;4878722;29;19943;-84
2022/08/16 08:59:18;;;;;;;;;;;;;;;;;;4879877;29;19935;-84
2022/08/16 09:01:47;;;;;;;;;;;;;;;;;;4880289;29;19935;-84
2022/08/16 09:04:23;;;;;;;;;;;;;;;;;;4885225;29;19935;-83
2022/08/16 09:06:52;;;;;;;;;;;;;;;;;;4893447;23;20415;-87
2022/08/16 09:09:20;;;;;;;;;;;;;;;;;;4912351;29;19938;-87
2022/08/16 09:11:54;;;;;;;;;;;;;;;;;;4897549;29;19927;-88
2022/08/16 09:14:34;;;;;;;;;;;;;;;;;;4897193;29;20006;-88
2022/08/16 09:17:01;;;;;;;;;;;;;;;;;;4897761;29;20384;-89
2022/08/16 09:19:48;;;;;;;;;;;;;;;;;;4913449;29;19931;-88
2022/08/16 09:22:19;;;;;;;;;;;;;;;;;;4898130;29;19939;-89
2022/08/16 09:24:48;;;;;;;;;;;;;;;;;;4898028;29;19966;-89
2022/08/16 09:27:21;;;;;;;;;;;;;;;;;;4898854;29;20351;-88
2022/08/16 09:29:49;;;;;;;;;;;;;;;;;;4913058;29;19931;-89
2022/08/16 09:32:26;;;;;;;;;;;;;;;;;;4914530;29;19934;-88
2022/08/16 09:34:57;;;;;;;;;;;;;;;;;;4916253;29;19978;-88
2022/08/16 09:37:24;;;;;;;;;;;;;;;;;;4916023;29;20002;-88
2022/08/16 09:39:55;;;;;;;;;;;;;;;;;;4898040;29;19940;-89
2022/08/16 09:42:23;;;;;;;;;;;;;;;;;;4914343;29;19994;-88
2022/08/16 09:44:50;;;;;;;;;;;;;;;;;;4912883;29;19930;-88
2022/08/16 09:47:39;;;;;;;;;;;;;;;;;;4913505;29;19931;-88
2022/08/16 09:50:25;;;;;;;;;;;;;;;;;;4913316;29;19931;-88
2022/08/16 09:52:53;;;;;;;;;;;;;;;;;;4915004;29;19927;-89
2022/08/16 09:55:20;;;;;;;;;;;;;;;;;;4882241;29;20241;-89
2022/08/16 09:57:47;;;;;;;;;;;;;;;;;;4897149;29;19978;-88
2022/08/16 10:00:19;;;;;;;;;;;;;;;;;;4911903;29;20380;-87
2022/08/16 10:03:06;;;;;;;;;;;;;;;;;;4911973;29;20376;-87
2022/08/16 10:05:36;;;;;;;;;;;;;;;;;;4929212;29;20394;-88
2022/08/16 10:08:03;;;;;;;;;;;;;;;;;;4931933;29;19936;-88
2022/08/16 10:13:42;;;;;;;;;;;;;;;;;;4932803;29;20417;-89
2022/08/16 10:16:12;;;;;;;;;;;;;;;;;;4932363;29;20294;-89
2022/08/16 10:18:40;;;;;;;;;;;;;;;;;;4931978;29;19927;-89
2022/08/16 10:21:28;;;;;;;;;;;;;;;;;;4931890;29;19931;-89
2022/08/16 10:23:58;;;;;;;;;;;;;;;;;;4932900;29;20450;-88
2022/08/16 10:26:25;;;;;;;;;;;;;;;;;;4931842;29;19927;-88
2022/08/16 10:29:12;;;;;;;;;;;;;;;;;;4933395;29;20351;-88
2022/08/16 10:31:46;;;;;;;;;;;;;;;;;;4931767;29;19973;-88
2022/08/16 10:34:19;;;;;;;;;;;;;;;;;;4924914;29;20344;-88
2022/08/16 10:36:58;;;;;;;;;;;;;;;;;;4911752;29;20382;-89
2022/08/16 10:39:25;;;;;;;;;;;;;;;;;;4912911;29;19952;-88
2022/08/16 10:41:52;;;;;;;;;;;;;;;;;;4912797;29;20057;-88
2022/08/16 10:44:20;;;;;;;;;;;;;;;;;;4914164;29;19937;-90
2022/08/16 10:46:48;;;;;;;;;;;;;;;;;;4913853;29;20030;-88
2022/08/16 10:49:15;;;;;;;;;;;;;;;;;;4913150;29;19935;-87
2022/08/16 10:51:44;;;;;;;;;;;;;;;;;;4912736;29;20379;-89
2022/08/16 10:54:28;;;;;;;;;;;;;;;;;;4912994;29;20005;-88
2022/08/16 10:56:56;;;;;;;;;;;;;;;;;;4913683;29;19927;-88
2022/08/16 10:59:24;;;;;;;;;;;;;;;;;;4896883;29;20006;-88
2022/08/16 11:02:04;;;;;;;;;;;;;;;;;;4914070;29;19939;-88
2022/08/16 11:04:52;;;;;;;;;;;;;;;;;;4916591;29;19931;-89
2022/08/16 11:07:36;;;;;;;;;;;;;;;;;;4930668;29;19934;-89
2022/08/16 11:10:23;;;;;;;;;;;;;;;;;;4931697;29;19930;-89
2022/08/16 11:13:10;;;;;;;;;;;;;;;;;;4931417;29;20052;-89
2022/08/16 11:15:59;;;;;;;;;;;;;;;;;;4932702;29;19931;-89
2022/08/16 11:18:28;;;;;;;;;;;;;;;;;;4931002;29;19943;-88
2022/08/16 11:21:15;;;;;;;;;;;;;;;;;;4950074;29;19933;-89
2022/08/16 11:23:55;;;;;;;;;;;;;;;;;;4942361;29;20033;-89
2022/08/16 11:26:24;;;;;;;;;;;;;;;;;;4934405;29;19935;-89
2022/08/16 11:28:54;;;;;;;;;;;;;;;;;;4917459;29;20356;-88
2022/08/16 11:31:41;;;;;;;;;;;;;;;;;;4916810;29;19943;-88
2022/08/16 11:34:12;;;;;;;;;;;;;;;;;;4910748;23;20380;-70
2022/08/16 11:36:39;;;;;;;;;;;;;;;;;;4868010;29;19932;-70
2022/08/16 11:39:21;;;;;;;;;;;;;;;;;;4869125;29;19931;-70
2022/08/16 11:41:48;;;;;;;;;;;;;;;;;;4868790;29;20344;-71
2022/08/16 11:44:15;;;;;;;;;;;;;;;;;;4869906;29;19999;-71
2022/08/16 11:46:46;;;;;;;;;;;;;;;;;;4887127;29;19928;-71
2022/08/16 11:49:13;;;;;;;;;;;;;;;;;;4870296;29;19932;-71
2022/08/16 11:51:42;;;;;;;;;;;;;;;;;;4861702;29;19935;-71
2022/08/16 11:54:10;;;;;;;;;;;;;;;;;;4870414;29;19932;-71
2022/08/16 11:56:47;;;;;;;;;;;;;;;;;;4868910;29;19938;-70
2022/08/16 11:59:22;;;;;;;;;;;;;;;;;;4873478;29;19936;-72
2022/08/16 12:01:50;;;;;;;;;;;;;;;;;;4874722;29;19991;-71
2022/08/16 12:04:21;;;;;;;;;;;;;;;;;;4879078;29;19967;-70
2022/08/16 12:06:49;;;;;;;;;;;;;;;;;;4873206;29;19932;-70
2022/08/16 12:09:16;;;;;;;;;;;;;;;;;;4874118;29;19943;-71
2022/08/16 12:11:43;;;;;;;;;;;;;;;;;;4860300;29;19930;-71
2022/08/16 12:14:10;;;;;;;;;;;;;;;;;;4855121;29;19932;-71
2022/08/16 12:16:38;;;;;;;;;;;;;;;;;;4855356;29;19928;-71
2022/08/16 12:19:05;;;;;;;;;;;;;;;;;;4869735;29;19928;-72
2022/08/16 12:21:32;;;;;;;;;;;;;;;;;;4855732;29;19981;-70
2022/08/16 12:24:04;;;;;;;;;;;;;;;;;;4855518;29;19928;-70
2022/08/16 12:26:31;;;;;;;;;;;;;;;;;;4855191;29;19934;-72
2022/08/16 12:29:02;;;;;;;;;;;;;;;;;;4855724;29;20028;-70
2022/08/16 12:31:30;;;;;;;;;;;;;;;;;;4855370;29;20249;-71
2022/08/16 12:33:57;;;;;;;;;;;;;;;;;;4861892;29;20062;-71
2022/08/16 12:36:25;;;;;;;;;;;;;;;;;;4881115;29;20407;-72
2022/08/16 12:38:53;;;;;;;;;;;;;;;;;;4906752;29;19954;-72
2022/08/16 12:41:21;;;;;;;;;;;;;;;;;;4893151;29;19931;-71
2022/08/16 12:43:51;;;;;;;;;;;;;;;;;;4867000;29;19951;-71
2022/08/16 12:46:18;;;;;;;;;;;;;;;;;;4875384;29;19931;-71
2022/08/16 12:48:57;;;;;;;;;;;;;;;;;;4870446;29;19936;-71
2022/08/16 12:51:26;;;;;;;;;;;;;;;;;;4878508;29;19935;-70
2022/08/16 12:53:59;;;;;;;;;;;;;;;;;;4867967;29;20423;-71
2022/08/16 12:56:26;;;;;;;;;;;;;;;;;;4889752;29;19936;-71
2022/08/16 12:58:53;;;;;;;;;;;;;;;;;;4890550;29;19937;-71
2022/08/16 13:01:22;;;;;;;;;;;;;;;;;;4889205;29;19935;-70
2022/08/16 13:03:49;;;;;;;;;;;;;;;;;;4876808;29;20478;-70
2022/08/16 13:06:25;;;;;;;;;;;;;;;;;;4878057;29;19978;-70
2022/08/16 13:09:01;;;;;;;;;;;;;;;;;;4876524;29;20022;-70
2022/08/16 13:11:28;;;;;;;;;;;;;;;;;;4893026;29;19935;-70
2022/08/16 13:13:57;;;;;;;;;;;;;;;;;;4893417;29;19938;-70
2022/08/16 13:16:24;;;;;;;;;;;;;;;;;;4892133;29;19981;-70
2022/08/16 13:18:51;;;;;;;;;;;;;;;;;;4890955;29;19939;-71
2022/08/16 13:21:20;;;;;;;;;;;;;;;;;;4892449;29;19931;-71
2022/08/16 13:23:50;;;;;;;;;;;;;;;;;;4892643;29;19932;-71
2022/08/16 13:26:17;;;;;;;;;;;;;;;;;;4892425;29;20338;-71
2022/08/16 13:28:44;;;;;;;;;;;;;;;;;;4892022;29;19972;-71
2022/08/16 13:31:14;;;;;;;;;;;;;;;;;;4892318;29;19932;-71
2022/08/16 13:33:42;;;;;;;;;;;;;;;;;;4884823;29;19938;-71
2022/08/16 13:36:09;;;;;;;;;;;;;;;;;;4884921;29;20455;-71
2022/08/16 13:38:47;;;;;;;;;;;;;;;;;;4868006;29;19932;-71
2022/08/16 13:41:15;;;;;;;;;;;;;;;;;;4863335;29;20101;-70
2022/08/16 13:43:42;;;;;;;;;;;;;;;;;;4864731;29;20368;-71
2022/08/16 13:46:10;;;;;;;;;;;;;;;;;;4860939;29;19957;-71
2022/08/16 13:48:37;;;;;;;;;;;;;;;;;;4864553;29;20175;-70
2022/08/16 13:51:10;;;;;;;;;;;;;;;;;;4869696;29;20032;-70
2022/08/16 13:53:43;;;;;;;;;;;;;;;;;;4868898;29;19936;-71
2022/08/16 13:56:10;;;;;;;;;;;;;;;;;;4868282;29;19932;-71
2022/08/16 13:58:38;;;;;;;;;;;;;;;;;;4870417;29;19935;-71
2022/08/16 14:01:17;;;;;;;;;;;;;;;;;;4859855;29;19935;-71
2022/08/16 14:03:44;;;;;;;;;;;;;;;;;;4862477;29;20062;-71
2022/08/16 14:06:12;;;;;;;;;;;;;;;;;;4860283;29;20035;-71
2022/08/16 14:08:40;;;;;;;;;;;;;;;;;;4866374;29;19931;-71
2022/08/16 14:11:09;;;;;;;;;;;;;;;;;;4870024;29;19932;-72
2022/08/16 14:13:38;;;;;;;;;;;;;;;;;;4872298;29;20041;-70
2022/08/16 14:16:05;;;;;;;;;;;;;;;;;;4866184;29;20015;-72
2022/08/16 14:18:38;;;;;;;;;;;;;;;;;;4867540;29;19936;-71
2022/08/16 14:21:06;;;;;;;;;;;;;;;;;;4871508;29;19927;-71
2022/08/16 14:23:33;;;;;;;;;;;;;;;;;;4870604;29;20340;-70
2022/08/16 14:26:01;;;;;;;;;;;;;;;;;;4867280;29;19934;-70
2022/08/16 14:28:28;;;;;;;;;;;;;;;;;;4868766;29;20307;-71
2022/08/16 14:30:55;;;;;;;;;;;;;;;;;;4869987;29;19932;-70
2022/08/16 14:33:22;;;;;;;;;;;;;;;;;;4866503;29;19943;-71
2022/08/16 14:35:50;;;;;;;;;;;;;;;;;;4869063;29;19938;-70
2022/08/16 14:38:18;;;;;;;;;;;;;;;;;;4871844;29;20303;-70
2022/08/16 14:40:50;;;;;;;;;;;;;;;;;;4873312;29;19932;-70
2022/08/16 14:43:21;;;;;;;;;;;;;;;;;;4872822;29;19979;-70
2022/08/16 14:45:48;;;;;;;;;;;;;;;;;;4868335;29;19932;-70
2022/08/16 14:48:17;;;;;;;;;;;;;;;;;;4873075;29;20034;-70
2022/08/16 14:50:50;;;;;;;;;;;;;;;;;;4875725;29;20030;-70
2022/08/16 14:53:18;;;;;;;;;;;;;;;;;;4877078;29;19939;-69
2022/08/16 14:55:45;;;;;;;;;;;;;;;;;;4875469;29;20305;-70
2022/08/16 14:58:13;;;;;;;;;;;;;;;;;;4875772;29;20400;-70
2022/08/16 15:00:45;;;;;;;;;;;;;;;;;;4873023;29;20167;-70
2022/08/16 15:03:12;;;;;;;;;;;;;;;;;;4875894;29;19928;-70
2022/08/16 15:05:39;;;;;;;;;;;;;;;;;;4880144;29;19957;-70
2022/08/16 15:08:07;;;;;;;;;;;;;;;;;;4880139;29;20250;-70
2022/08/16 15:10:34;;;;;;;;;;;;;;;;;;4878151;29;19939;-70
2022/08/16 15:13:03;;;;;;;;;;;;;;;;;;4871162;29;19931;-71
2022/08/16 15:15:30;;;;;;;;;;;;;;;;;;4862594;29;20501;-70
2022/08/16 15:17:58;;;;;;;;;;;;;;;;;;4864442;29;20046;-70
2022/08/16 15:20:27;;;;;;;;;;;;;;;;;;4889998;29;19936;-70
2022/08/16 15:22:55;;;;;;;;;;;;;;;;;;4867745;29;19931;-70
2022/08/16 15:25:23;;;;;;;;;;;;;;;;;;4861717;29;20460;-70
2022/08/16 15:27:55;;;;;;;;;;;;;;;;;;4847700;29;19942;-70
2022/08/16 15:30:23;;;;;;;;;;;;;;;;;;4850192;29;20206;-70
2022/08/16 15:33:10;;;;;;;;;;;;;;;;;;4862987;29;20304;-69
2022/08/16 15:35:38;;;;;;;;;;;;;;;;;;4871300;29;20040;-70
2022/08/16 15:38:06;;;;;;;;;;;;;;;;;;4864174;29;19936;-71
2022/08/16 15:40:37;;;;;;;;;;;;;;;;;;4909008;23;19931;-71
2022/08/16 15:43:24;;;;;;;;;;;;;;;;;;4851879;29;19932;-72
2022/08/16 15:48:40;;;;;;;;;;;;;;;;;;4874377;29;20399;-71
2022/08/16 15:51:07;;;;;;;;;;;;;;;;;;4873138;29;19932;-72
2022/08/16 15:53:34;;;;;;;;;;;;;;;;;;4865490;29;20391;-72
2022/08/16 15:56:08;;;;;;;;;;;;;;;;;;4864854;29;19935;-72
2022/08/16 15:58:35;;;;;;;;;;;;;;;;;;4866318;29;20412;-72
2022/08/16 16:01:04;;;;;;;;;;;;;;;;;;4866609;29;20054;-72
2022/08/16 16:03:32;;;;;;;;;;;;;;;;;;4872647;29;19938;-72
2022/08/16 16:06:01;;;;;;;;;;;;;;;;;;4872005;29;19928;-72
2022/08/16 16:08:29;;;;;;;;;;;;;;;;;;4872977;29;19927;-71
2022/08/16 16:10:57;;;;;;;;;;;;;;;;;;4867592;29;20061;-72
2022/08/16 16:13:24;;;;;;;;;;;;;;;;;;4868791;29;20332;-72
2022/08/16 16:15:51;;;;;;;;;;;;;;;;;;4867727;29;19936;-72
2022/08/16 16:18:18;;;;;;;;;;;;;;;;;;4865906;29;19943;-72
2022/08/16 16:20:46;;;;;;;;;;;;;;;;;;4857144;29;20070;-72
2022/08/16 16:23:13;;;;;;;;;;;;;;;;;;4871607;29;20015;-72
2022/08/16 16:25:42;;;;;;;;;;;;;;;;;;4872968;29;19932;-72
2022/08/16 16:28:09;;;;;;;;;;;;;;;;;;4866329;29;19938;-72
2022/08/16 16:30:38;;;;;;;;;;;;;;;;;;4869825;29;20320;-74
2022/08/16 16:33:11;;;;;;;;;;;;;;;;;;4874849;29;19943;-72
2022/08/16 16:35:42;;;;;;;;;;;;;;;;;;4873201;29;19938;-73
2022/08/16 16:38:14;;;;;;;;;;;;;;;;;;4872456;29;19931;-71
2022/08/16 16:40:43;;;;;;;;;;;;;;;;;;4869182;29;20288;-72
2022/08/16 16:43:12;;;;;;;;;;;;;;;;;;4859598;29;20035;-72
2022/08/16 16:45:40;;;;;;;;;;;;;;;;;;4862227;29;20026;-72
2022/08/16 16:48:08;;;;;;;;;;;;;;;;;;4851621;29;19931;-72
2022/08/16 16:50:38;;;;;;;;;;;;;;;;;;4871582;29;19931;-72
2022/08/16 16:53:06;;;;;;;;;;;;;;;;;;4867631;29;19939;-72
2022/08/16 16:55:43;;;;;;;;;;;;;;;;;;4864743;29;19936;-72
2022/08/16 17:01:03;;;;;;;;;;;;;;;;;;4861475;29;19928;-72
2022/08/16 17:03:31;;;;;;;;;;;;;;;;;;4869941;29;19972;-72
2022/08/16 17:05:58;;;;;;;;;;;;;;;;;;4871675;29;19935;-72
2022/08/16 17:08:36;;;;;;;;;;;;;;;;;;4873436;29;19931;-72
2022/08/16 17:11:03;;;;;;;;;;;;;;;;;;4884400;29;19975;-72
2022/08/16 17:13:31;;;;;;;;;;;;;;;;;;4872374;29;19938;-72
2022/08/16 17:15:59;;;;;;;;;;;;;;;;;;4887534;29;19936;-72
2022/08/16 17:18:26;;;;;;;;;;;;;;;;;;4873583;29;19928;-72
2022/08/16 17:21:13;;;;;;;;;;;;;;;;;;4874470;29;20027;-72
2022/08/16 17:24:00;;;;;;;;;;;;;;;;;;4873513;29;19938;-72
2022/08/16 17:26:28;;;;;;;;;;;;;;;;;;4873152;29;19928;-72